sensor_id;sensor_type;location;lat;lon;timestamp;pressure;altitude;pressure_sealevel;temperature;humidity
65784;BME280;52532;53.358;-1.488;2022-07-05T00:02:31;101265.03;;;16.58;48.97
65784;BME280;52532;53.358;-1.488;2022-07-05T00:05:34;101268.40;;;17.09;47.82
65784;BME280;52532;53.358;-1.488;2022-07-05T00:08:39;101271.35;;;17.03;48.12
65784;BME280;52532;53.358;-1.488;2022-07-05T00:11:42;101273.81;;;16.61;49.28
65784;BME280;52532;53.358;-1.488;2022-07-05T00:14:45;101263.97;;;18.18;46.70
65784;BME280;52532;53.358;-1.488;2022-07-05T00:17:49;101266.01;;;18.42;45.85
65784;BME280;52532;53.358;-1.488;2022-07-05T00:20:52;101263.82;;;17.83;46.58
65784;BME280;52532;53.358;-1.488;2022-07-05T00:23:55;101256.50;;;16.85;47.58
65784;BME280;52532;53.358;-1.488;2022-07-05T00:27:01;101261.03;;;18.35;45.55
65784;BME280;52532;53.358;-1.488;2022-07-05T00:30:05;101257.96;;;16.47;48.99
65784;BME280;52532;53.358;-1.488;2022-07-05T00:33:08;101248.13;;;17.95;46.27
65784;BME280;52532;53.358;-1.488;2022-07-05T00:36:11;101249.35;;;16.49;49.59
65784;BME280;52532;53.358;-1.488;2022-07-05T00:39:14;101247.73;;;15.78;50.90
65784;BME280;52532;53.358;-1.488;2022-07-05T00:42:17;101246.97;;;15.65;51.50
65784;BME280;52532;53.358;-1.488;2022-07-05T00:45:20;101247.39;;;15.15;54.28
65784;BME280;52532;53.358;-1.488;2022-07-05T00:48:23;101246.46;;;16.23;52.24
65784;BME280;52532;53.358;-1.488;2022-07-05T00:51:29;101243.73;;;15.58;53.23
65784;BME280;52532;53.358;-1.488;2022-07-05T00:54:35;101247.91;;;17.05;49.30
65784;BME280;52532;53.358;-1.488;2022-07-05T00:57:38;101244.11;;;15.52;52.54
65784;BME280;52532;53.358;-1.488;2022-07-05T01:00:42;101248.57;;;16.67;50.95
65784;BME280;52532;53.358;-1.488;2022-07-05T01:03:46;101250.26;;;16.17;51.02
65784;BME280;52532;53.358;-1.488;2022-07-05T01:06:51;101252.82;;;17.08;50.23
65784;BME280;52532;53.358;-1.488;2022-07-05T01:09:54;101254.55;;;16.89;49.03
65784;BME280;52532;53.358;-1.488;2022-07-05T01:12:57;101251.69;;;15.85;51.93
65784;BME280;52532;53.358;-1.488;2022-07-05T01:16:01;101258.43;;;16.62;50.94
65784;BME280;52532;53.358;-1.488;2022-07-05T01:19:04;101252.46;;;15.42;52.97
65784;BME280;52532;53.358;-1.488;2022-07-05T01:22:15;101251.85;;;14.30;55.25
65784;BME280;52532;53.358;-1.488;2022-07-05T01:25:20;101252.22;;;16.50;50.63
65784;BME280;52532;53.358;-1.488;2022-07-05T01:28:30;101253.41;;;16.00;51.02
65784;BME280;52532;53.358;-1.488;2022-07-05T01:31:33;101255.93;;;15.53;52.07
65784;BME280;52532;53.358;-1.488;2022-07-05T01:34:37;101252.71;;;15.58;51.76
65784;BME280;52532;53.358;-1.488;2022-07-05T01:37:41;101248.89;;;15.30;52.80
65784;BME280;52532;53.358;-1.488;2022-07-05T01:40:44;101252.51;;;17.07;48.48
65784;BME280;52532;53.358;-1.488;2022-07-05T01:43:47;101246.79;;;14.03;53.35
65784;BME280;52532;53.358;-1.488;2022-07-05T01:46:54;101248.10;;;15.67;51.93
65784;BME280;52532;53.358;-1.488;2022-07-05T01:49:59;101252.93;;;13.89;54.88
65784;BME280;52532;53.358;-1.488;2022-07-05T01:53:03;101250.96;;;15.36;50.87
65784;BME280;52532;53.358;-1.488;2022-07-05T01:56:07;101255.57;;;16.61;48.63
65784;BME280;52532;53.358;-1.488;2022-07-05T01:59:11;101256.80;;;14.39;53.59
65784;BME280;52532;53.358;-1.488;2022-07-05T02:02:15;101256.85;;;14.97;52.92
65784;BME280;52532;53.358;-1.488;2022-07-05T02:05:22;101251.90;;;14.44;53.65
65784;BME280;52532;53.358;-1.488;2022-07-05T02:08:29;101250.80;;;15.45;50.35
65784;BME280;52532;53.358;-1.488;2022-07-05T02:11:32;101248.62;;;16.43;49.35
65784;BME280;52532;53.358;-1.488;2022-07-05T02:14:36;101247.97;;;14.87;50.70
65784;BME280;52532;53.358;-1.488;2022-07-05T02:17:38;101250.24;;;15.47;49.47
65784;BME280;52532;53.358;-1.488;2022-07-05T02:20:42;101247.53;;;15.33;50.13
65784;BME280;52532;53.358;-1.488;2022-07-05T02:23:46;101249.24;;;14.20;51.59
65784;BME280;52532;53.358;-1.488;2022-07-05T02:26:49;101244.73;;;15.81;48.59
65784;BME280;52532;53.358;-1.488;2022-07-05T02:29:52;101246.56;;;13.53;53.47
65784;BME280;52532;53.358;-1.488;2022-07-05T02:32:55;101247.32;;;14.43;50.97
65784;BME280;52532;53.358;-1.488;2022-07-05T02:36:06;101249.95;;;16.62;46.58
65784;BME280;52532;53.358;-1.488;2022-07-05T02:39:09;101248.37;;;16.84;45.94
65784;BME280;52532;53.358;-1.488;2022-07-05T02:42:12;101251.72;;;15.92;47.84
65784;BME280;52532;53.358;-1.488;2022-07-05T02:45:15;101251.56;;;15.82;47.33
65784;BME280;52532;53.358;-1.488;2022-07-05T02:48:18;101253.09;;;14.22;50.63
65784;BME280;52532;53.358;-1.488;2022-07-05T02:51:20;101258.90;;;15.81;48.46
65784;BME280;52532;53.358;-1.488;2022-07-05T02:54:23;101255.07;;;15.86;47.45
65784;BME280;52532;53.358;-1.488;2022-07-05T02:57:26;101254.45;;;15.46;47.19
65784;BME280;52532;53.358;-1.488;2022-07-05T03:00:29;101251.33;;;15.57;47.70
65784;BME280;52532;53.358;-1.488;2022-07-05T03:03:33;101252.45;;;15.29;48.37
65784;BME280;52532;53.358;-1.488;2022-07-05T03:06:36;101254.98;;;16.84;45.18
65784;BME280;52532;53.358;-1.488;2022-07-05T03:09:39;101256.90;;;17.02;45.77
65784;BME280;52532;53.358;-1.488;2022-07-05T03:12:42;101265.20;;;18.01;43.93
65784;BME280;52532;53.358;-1.488;2022-07-05T03:15:45;101266.63;;;17.28;45.63
65784;BME280;52532;53.358;-1.488;2022-07-05T03:18:48;101268.54;;;16.72;45.40
65784;BME280;52532;53.358;-1.488;2022-07-05T03:21:51;101264.95;;;16.06;45.24
65784;BME280;52532;53.358;-1.488;2022-07-05T03:24:54;101266.23;;;16.23;46.32
65784;BME280;52532;53.358;-1.488;2022-07-05T03:27:56;101270.64;;;16.97;45.80
65784;BME280;52532;53.358;-1.488;2022-07-05T03:31:00;101273.21;;;15.36;48.17
65784;BME280;52532;53.358;-1.488;2022-07-05T03:34:03;101277.55;;;14.62;49.88
65784;BME280;52532;53.358;-1.488;2022-07-05T03:37:06;101280.85;;;16.05;47.65
65784;BME280;52532;53.358;-1.488;2022-07-05T03:40:10;101278.43;;;16.45;46.25
65784;BME280;52532;53.358;-1.488;2022-07-05T03:43:13;101283.43;;;17.09;45.63
65784;BME280;52532;53.358;-1.488;2022-07-05T03:46:16;101283.01;;;16.65;46.26
65784;BME280;52532;53.358;-1.488;2022-07-05T03:49:19;101277.59;;;16.74;46.83
65784;BME280;52532;53.358;-1.488;2022-07-05T03:52:22;101275.41;;;17.61;43.82
65784;BME280;52532;53.358;-1.488;2022-07-05T03:55:25;101280.17;;;16.84;45.00
65784;BME280;52532;53.358;-1.488;2022-07-05T03:58:28;101277.73;;;18.29;43.43
65784;BME280;52532;53.358;-1.488;2022-07-05T04:01:31;101286.92;;;16.51;44.64
65784;BME280;52532;53.358;-1.488;2022-07-05T04:04:34;101288.40;;;16.00;45.72
65784;BME280;52532;53.358;-1.488;2022-07-05T04:07:50;101286.05;;;18.28;43.07
65784;BME280;52532;53.358;-1.488;2022-07-05T04:10:54;101290.04;;;18.55;42.89
65784;BME280;52532;53.358;-1.488;2022-07-05T04:13:57;101288.78;;;17.84;43.65
65784;BME280;52532;53.358;-1.488;2022-07-05T04:17:00;101293.35;;;17.24;44.65
65784;BME280;52532;53.358;-1.488;2022-07-05T04:20:09;101287.48;;;17.89;44.25
65784;BME280;52532;53.358;-1.488;2022-07-05T04:23:12;101294.79;;;18.01;43.70
65784;BME280;52532;53.358;-1.488;2022-07-05T04:26:15;101296.87;;;16.63;46.06
65784;BME280;52532;53.358;-1.488;2022-07-05T04:29:19;101293.79;;;16.05;46.39
65784;BME280;52532;53.358;-1.488;2022-07-05T04:32:21;101292.73;;;18.58;43.81
65784;BME280;52532;53.358;-1.488;2022-07-05T04:35:24;101295.58;;;17.42;45.57
65784;BME280;52532;53.358;-1.488;2022-07-05T04:38:27;101292.01;;;17.64;44.81
65784;BME280;52532;53.358;-1.488;2022-07-05T04:41:31;101295.30;;;16.42;46.75
65784;BME280;52532;53.358;-1.488;2022-07-05T04:44:39;101299.95;;;17.18;45.23
65784;BME280;52532;53.358;-1.488;2022-07-05T04:47:42;101303.99;;;15.79;47.90
65784;BME280;52532;53.358;-1.488;2022-07-05T04:50:47;101308.64;;;17.70;44.66
65784;BME280;52532;53.358;-1.488;2022-07-05T04:53:50;101315.92;;;17.93;44.99
65784;BME280;52532;53.358;-1.488;2022-07-05T04:59:51;101319.09;;;18.05;44.68
65784;BME280;52532;53.358;-1.488;2022-07-05T05:02:54;101317.74;;;17.24;47.37
65784;BME280;52532;53.358;-1.488;2022-07-05T05:05:57;101313.21;;;18.42;44.60
65784;BME280;52532;53.358;-1.488;2022-07-05T05:09:00;101313.69;;;17.85;45.15
65784;BME280;52532;53.358;-1.488;2022-07-05T05:12:04;101317.47;;;14.73;51.13
65784;BME280;52532;53.358;-1.488;2022-07-05T05:15:08;101323.75;;;16.15;47.82
65784;BME280;52532;53.358;-1.488;2022-07-05T05:18:12;101328.03;;;17.28;45.43
65784;BME280;52532;53.358;-1.488;2022-07-05T05:21:16;101335.80;;;16.43;46.16
65784;BME280;52532;53.358;-1.488;2022-07-05T05:24:19;101340.58;;;16.90;46.01
65784;BME280;52532;53.358;-1.488;2022-07-05T05:27:22;101337.57;;;18.66;43.86
65784;BME280;52532;53.358;-1.488;2022-07-05T05:30:25;101342.47;;;18.66;43.18
65784;BME280;52532;53.358;-1.488;2022-07-05T05:33:28;101349.53;;;17.61;45.02
65784;BME280;52532;53.358;-1.488;2022-07-05T05:36:30;101350.17;;;17.53;46.03
65784;BME280;52532;53.358;-1.488;2022-07-05T05:39:34;101347.74;;;18.13;44.46
65784;BME280;52532;53.358;-1.488;2022-07-05T05:42:37;101352.51;;;15.15;51.19
65784;BME280;52532;53.358;-1.488;2022-07-05T05:45:41;101359.05;;;15.45;50.32
65784;BME280;52532;53.358;-1.488;2022-07-05T05:48:49;101358.60;;;15.35;51.11
65784;BME280;52532;53.358;-1.488;2022-07-05T05:51:53;101361.27;;;14.65;51.57
65784;BME280;52532;53.358;-1.488;2022-07-05T05:54:56;101363.89;;;15.57;51.48
65784;BME280;52532;53.358;-1.488;2022-07-05T05:58:10;101362.16;;;15.65;51.11
65784;BME280;52532;53.358;-1.488;2022-07-05T06:01:13;101365.97;;;15.84;50.98
65784;BME280;52532;53.358;-1.488;2022-07-05T06:04:17;101365.34;;;16.90;49.45
65784;BME280;52532;53.358;-1.488;2022-07-05T06:07:20;101371.58;;;16.79;48.32
65784;BME280;52532;53.358;-1.488;2022-07-05T06:10:25;101368.12;;;14.98;51.46
65784;BME280;52532;53.358;-1.488;2022-07-05T06:13:28;101380.54;;;13.80;52.26
65784;BME280;52532;53.358;-1.488;2022-07-05T06:16:31;101378.83;;;15.89;48.49
65784;BME280;52532;53.358;-1.488;2022-07-05T06:19:34;101380.43;;;13.70;52.08
65784;BME280;52532;53.358;-1.488;2022-07-05T06:22:37;101372.56;;;14.53;51.31
65784;BME280;52532;53.358;-1.488;2022-07-05T06:25:41;101372.29;;;13.26;53.32
65784;BME280;52532;53.358;-1.488;2022-07-05T06:28:44;101373.68;;;14.55;50.72
65784;BME280;52532;53.358;-1.488;2022-07-05T06:31:47;101374.64;;;15.19;50.08
65784;BME280;52532;53.358;-1.488;2022-07-05T06:34:50;101373.84;;;15.35;49.42
65784;BME280;52532;53.358;-1.488;2022-07-05T06:37:55;101373.79;;;14.93;51.11
65784;BME280;52532;53.358;-1.488;2022-07-05T06:41:00;101382.56;;;15.10;51.32
65784;BME280;52532;53.358;-1.488;2022-07-05T06:44:04;101388.53;;;14.65;51.87
65784;BME280;52532;53.358;-1.488;2022-07-05T06:47:07;101399.38;;;14.08;52.55
65784;BME280;52532;53.358;-1.488;2022-07-05T06:50:10;101402.72;;;13.79;53.73
65784;BME280;52532;53.358;-1.488;2022-07-05T06:53:13;101393.35;;;15.49;50.06
65784;BME280;52532;53.358;-1.488;2022-07-05T06:56:16;101401.68;;;13.75;53.99
65784;BME280;52532;53.358;-1.488;2022-07-05T06:59:20;101394.74;;;14.41;51.77
65784;BME280;52532;53.358;-1.488;2022-07-05T07:02:23;101397.95;;;14.55;51.11
65784;BME280;52532;53.358;-1.488;2022-07-05T07:05:27;101406.34;;;15.28;48.86
65784;BME280;52532;53.358;-1.488;2022-07-05T07:08:39;101408.04;;;14.04;53.04
65784;BME280;52532;53.358;-1.488;2022-07-05T07:12:50;101408.51;;;16.35;49.03
65784;BME280;52532;53.358;-1.488;2022-07-05T07:15:53;101410.27;;;15.03;49.11
65784;BME280;52532;53.358;-1.488;2022-07-05T07:18:56;101407.33;;;15.61;48.97
65784;BME280;52532;53.358;-1.488;2022-07-05T07:21:59;101418.91;;;16.49;47.48
65784;BME280;52532;53.358;-1.488;2022-07-05T07:25:04;101415.38;;;15.49;49.58
65784;BME280;52532;53.358;-1.488;2022-07-05T07:28:10;101416.70;;;15.11;51.41
65784;BME280;52532;53.358;-1.488;2022-07-05T07:31:13;101424.88;;;14.75;53.08
65784;BME280;52532;53.358;-1.488;2022-07-05T07:34:21;101422.21;;;14.89;51.69
65784;BME280;52532;53.358;-1.488;2022-07-05T07:37:24;101422.77;;;15.61;51.77
65784;BME280;52532;53.358;-1.488;2022-07-05T07:40:33;101427.89;;;15.54;51.58
65784;BME280;52532;53.358;-1.488;2022-07-05T07:43:41;101431.79;;;16.82;48.93
65784;BME280;52532;53.358;-1.488;2022-07-05T07:46:44;101429.60;;;16.23;49.22
65784;BME280;52532;53.358;-1.488;2022-07-05T07:49:48;101436.81;;;16.10;49.29
65784;BME280;52532;53.358;-1.488;2022-07-05T07:52:51;101439.48;;;15.29;50.83
65784;BME280;52532;53.358;-1.488;2022-07-05T07:55:54;101439.26;;;16.42;48.85
65784;BME280;52532;53.358;-1.488;2022-07-05T07:58:57;101439.93;;;15.76;49.07
65784;BME280;52532;53.358;-1.488;2022-07-05T08:02:00;101442.17;;;16.30;48.62
65784;BME280;52532;53.358;-1.488;2022-07-05T08:05:04;101449.68;;;17.11;47.10
65784;BME280;52532;53.358;-1.488;2022-07-05T08:08:08;101448.90;;;16.91;48.48
65784;BME280;52532;53.358;-1.488;2022-07-05T08:11:11;101449.14;;;16.48;48.34
65784;BME280;52532;53.358;-1.488;2022-07-05T08:14:16;101449.43;;;17.42;47.58
65784;BME280;52532;53.358;-1.488;2022-07-05T08:17:19;101444.93;;;16.20;49.65
65784;BME280;52532;53.358;-1.488;2022-07-05T08:20:24;101443.69;;;16.04;50.65
65784;BME280;52532;53.358;-1.488;2022-07-05T08:25:37;101442.71;;;15.57;52.17
65784;BME280;52532;53.358;-1.488;2022-07-05T08:28:41;101441.12;;;17.24;50.44
65784;BME280;52532;53.358;-1.488;2022-07-05T08:31:47;101441.97;;;15.82;51.54
65784;BME280;52532;53.358;-1.488;2022-07-05T08:34:51;101441.86;;;17.05;49.06
65784;BME280;52532;53.358;-1.488;2022-07-05T08:37:54;101446.07;;;16.37;49.64
65784;BME280;52532;53.358;-1.488;2022-07-05T08:40:59;101446.24;;;16.16;51.53
65784;BME280;52532;53.358;-1.488;2022-07-05T08:44:05;101442.26;;;15.21;55.36
65784;BME280;52532;53.358;-1.488;2022-07-05T08:47:10;101452.06;;;15.95;51.70
65784;BME280;52532;53.358;-1.488;2022-07-05T08:50:14;101452.42;;;16.10;51.57
65784;BME280;52532;53.358;-1.488;2022-07-05T08:53:18;101456.25;;;15.47;53.72
65784;BME280;52532;53.358;-1.488;2022-07-05T08:56:22;101455.17;;;16.42;51.65
65784;BME280;52532;53.358;-1.488;2022-07-05T08:59:25;101460.91;;;16.28;51.73
65784;BME280;52532;53.358;-1.488;2022-07-05T09:02:28;101455.34;;;14.46;56.58
65784;BME280;52532;53.358;-1.488;2022-07-05T09:08:30;101459.65;;;16.51;51.91
65784;BME280;52532;53.358;-1.488;2022-07-05T09:11:37;101462.33;;;16.76;50.90
65784;BME280;52532;53.358;-1.488;2022-07-05T09:14:40;101464.48;;;16.14;51.29
65784;BME280;52532;53.358;-1.488;2022-07-05T09:17:43;101463.25;;;17.04;49.87
65784;BME280;52532;53.358;-1.488;2022-07-05T09:20:46;101465.77;;;16.38;51.49
65784;BME280;52532;53.358;-1.488;2022-07-05T09:23:58;101474.09;;;17.32;49.47
65784;BME280;52532;53.358;-1.488;2022-07-05T09:27:03;101470.03;;;16.80;51.05
65784;BME280;52532;53.358;-1.488;2022-07-05T09:30:12;101473.09;;;17.76;49.02
65784;BME280;52532;53.358;-1.488;2022-07-05T09:33:26;101475.69;;;18.17;46.81
65784;BME280;52532;53.358;-1.488;2022-07-05T09:36:52;101475.68;;;17.38;48.74
65784;BME280;52532;53.358;-1.488;2022-07-05T09:39:55;101482.32;;;17.25;50.30
65784;BME280;52532;53.358;-1.488;2022-07-05T09:43:15;101490.26;;;18.31;47.80
65784;BME280;52532;53.358;-1.488;2022-07-05T09:46:29;101485.05;;;16.32;52.57
65784;BME280;52532;53.358;-1.488;2022-07-05T09:49:33;101480.74;;;17.17;52.29
65784;BME280;52532;53.358;-1.488;2022-07-05T09:52:37;101484.23;;;17.39;50.83
65784;BME280;52532;53.358;-1.488;2022-07-05T09:55:40;101484.44;;;16.74;50.98
65784;BME280;52532;53.358;-1.488;2022-07-05T09:58:44;101481.07;;;16.27;53.96
65784;BME280;52532;53.358;-1.488;2022-07-05T10:01:49;101475.07;;;16.26;53.78
65784;BME280;52532;53.358;-1.488;2022-07-05T10:05:13;101482.75;;;16.48;53.31
65784;BME280;52532;53.358;-1.488;2022-07-05T10:08:17;101482.19;;;18.50;49.61
65784;BME280;52532;53.358;-1.488;2022-07-05T10:11:25;101481.67;;;16.60;53.32
65784;BME280;52532;53.358;-1.488;2022-07-05T10:14:29;101482.69;;;17.27;50.44
65784;BME280;52532;53.358;-1.488;2022-07-05T10:17:36;101488.60;;;16.41;55.09
65784;BME280;52532;53.358;-1.488;2022-07-05T10:20:42;101489.68;;;16.44;58.45
65784;BME280;52532;53.358;-1.488;2022-07-05T10:23:51;101490.05;;;17.12;57.66
65784;BME280;52532;53.358;-1.488;2022-07-05T10:26:57;101489.07;;;15.98;60.38
65784;BME280;52532;53.358;-1.488;2022-07-05T10:30:00;101488.45;;;17.72;54.45
65784;BME280;52532;53.358;-1.488;2022-07-05T10:33:06;101491.18;;;17.18;54.45
65784;BME280;52532;53.358;-1.488;2022-07-05T10:36:10;101494.46;;;18.34;52.29
65784;BME280;52532;53.358;-1.488;2022-07-05T10:39:14;101501.96;;;16.61;55.10
65784;BME280;52532;53.358;-1.488;2022-07-05T10:42:18;101497.99;;;17.45;52.80
65784;BME280;52532;53.358;-1.488;2022-07-05T10:45:25;101492.79;;;17.47;50.43
65784;BME280;52532;53.358;-1.488;2022-07-05T10:48:29;101500.40;;;19.04;48.84
65784;BME280;52532;53.358;-1.488;2022-07-05T10:51:35;101496.78;;;17.67;49.56
65784;BME280;52532;53.358;-1.488;2022-07-05T10:55:17;101477.13;;;17.47;51.04
65784;BME280;52532;53.358;-1.488;2022-07-05T10:58:24;101478.12;;;18.18;49.09
65784;BME280;52532;53.358;-1.488;2022-07-05T11:01:34;101480.86;;;17.83;48.11
65784;BME280;52532;53.358;-1.488;2022-07-05T11:04:37;101483.22;;;17.44;48.72
65784;BME280;52532;53.358;-1.488;2022-07-05T11:07:57;101473.58;;;18.03;47.93
65784;BME280;52532;53.358;-1.488;2022-07-05T11:11:16;101478.49;;;18.75;45.53
65784;BME280;52532;53.358;-1.488;2022-07-05T11:14:31;101484.16;;;18.15;45.84
65784;BME280;52532;53.358;-1.488;2022-07-05T11:17:35;101483.56;;;17.53;45.06
65784;BME280;52532;53.358;-1.488;2022-07-05T11:20:39;101484.20;;;17.88;44.17
65784;BME280;52532;53.358;-1.488;2022-07-05T11:23:42;101486.55;;;17.69;42.90
65784;BME280;52532;53.358;-1.488;2022-07-05T11:26:45;101487.38;;;18.19;42.48
65784;BME280;52532;53.358;-1.488;2022-07-05T11:29:58;101481.80;;;17.94;42.74
65784;BME280;52532;53.358;-1.488;2022-07-05T11:33:26;101483.29;;;19.00;42.33
65784;BME280;52532;53.358;-1.488;2022-07-05T11:36:29;101486.87;;;19.17;41.27
65784;BME280;52532;53.358;-1.488;2022-07-05T11:39:33;101484.76;;;19.00;40.45
65784;BME280;52532;53.358;-1.488;2022-07-05T11:42:36;101491.77;;;17.44;42.03
65784;BME280;52532;53.358;-1.488;2022-07-05T11:45:40;101484.80;;;17.85;43.08
65784;BME280;52532;53.358;-1.488;2022-07-05T11:48:48;101491.24;;;17.76;41.89
65784;BME280;52532;53.358;-1.488;2022-07-05T11:51:57;101485.24;;;18.69;41.70
65784;BME280;52532;53.358;-1.488;2022-07-05T11:55:02;101494.58;;;18.26;41.31
65784;BME280;52532;53.358;-1.488;2022-07-05T11:58:09;101488.14;;;18.64;41.08
65784;BME280;52532;53.358;-1.488;2022-07-05T12:01:12;101489.96;;;18.58;40.18
65784;BME280;52532;53.358;-1.488;2022-07-05T12:04:21;101492.43;;;18.49;41.66
65784;BME280;52532;53.358;-1.488;2022-07-05T12:07:25;101492.02;;;18.26;43.00
65784;BME280;52532;53.358;-1.488;2022-07-05T12:10:28;101506.98;;;18.11;40.75
65784;BME280;52532;53.358;-1.488;2022-07-05T12:15:41;101500.51;;;18.14;41.60
65784;BME280;52532;53.358;-1.488;2022-07-05T12:18:48;101495.34;;;18.39;40.82
65784;BME280;52532;53.358;-1.488;2022-07-05T12:21:52;101498.15;;;19.47;39.38
65784;BME280;52532;53.358;-1.488;2022-07-05T12:24:56;101501.80;;;17.45;42.36
65784;BME280;52532;53.358;-1.488;2022-07-05T12:28:03;101495.88;;;17.79;41.35
65784;BME280;52532;53.358;-1.488;2022-07-05T12:31:18;101502.99;;;19.65;40.05
65784;BME280;52532;53.358;-1.488;2022-07-05T12:34:22;101514.41;;;18.11;40.31
65784;BME280;52532;53.358;-1.488;2022-07-05T12:37:26;101504.04;;;17.82;42.09
65784;BME280;52532;53.358;-1.488;2022-07-05T12:40:30;101501.89;;;18.23;40.20
65784;BME280;52532;53.358;-1.488;2022-07-05T12:43:33;101511.70;;;18.96;39.70
65784;BME280;52532;53.358;-1.488;2022-07-05T12:47:04;101512.62;;;19.06;39.21
65784;BME280;52532;53.358;-1.488;2022-07-05T12:50:08;101515.97;;;20.12;36.11
65784;BME280;52532;53.358;-1.488;2022-07-05T12:53:11;101505.11;;;19.45;37.48
65784;BME280;52532;53.358;-1.488;2022-07-05T12:58:26;101495.91;;;20.54;38.59
65784;BME280;52532;53.358;-1.488;2022-07-05T13:01:30;101498.41;;;19.05;37.21
65784;BME280;52532;53.358;-1.488;2022-07-05T13:04:34;101501.99;;;20.00;37.26
65784;BME280;52532;53.358;-1.488;2022-07-05T13:07:41;101505.81;;;19.76;37.84
65784;BME280;52532;53.358;-1.488;2022-07-05T13:10:46;101505.63;;;19.37;37.97
65784;BME280;52532;53.358;-1.488;2022-07-05T13:13:49;101506.80;;;20.52;36.02
65784;BME280;52532;53.358;-1.488;2022-07-05T13:16:53;101505.89;;;19.99;35.77
65784;BME280;52532;53.358;-1.488;2022-07-05T13:19:57;101512.72;;;19.74;37.51
65784;BME280;52532;53.358;-1.488;2022-07-05T13:23:02;101518.62;;;19.09;37.77
65784;BME280;52532;53.358;-1.488;2022-07-05T13:26:04;101520.68;;;20.86;34.46
65784;BME280;52532;53.358;-1.488;2022-07-05T13:29:08;101527.61;;;21.34;34.50
65784;BME280;52532;53.358;-1.488;2022-07-05T13:32:11;101529.86;;;20.67;35.68
65784;BME280;52532;53.358;-1.488;2022-07-05T13:35:14;101531.25;;;20.23;34.60
65784;BME280;52532;53.358;-1.488;2022-07-05T13:38:19;101530.36;;;20.53;34.41
65784;BME280;52532;53.358;-1.488;2022-07-05T13:41:22;101532.66;;;20.69;35.28
65784;BME280;52532;53.358;-1.488;2022-07-05T13:44:37;101539.74;;;21.62;34.04
65784;BME280;52532;53.358;-1.488;2022-07-05T13:47:40;101540.59;;;20.25;35.83
65784;BME280;52532;53.358;-1.488;2022-07-05T13:50:43;101537.82;;;19.82;36.29
65784;BME280;52532;53.358;-1.488;2022-07-05T13:53:54;101546.18;;;19.60;38.62
65784;BME280;52532;53.358;-1.488;2022-07-05T13:56:57;101545.06;;;20.30;36.85
65784;BME280;52532;53.358;-1.488;2022-07-05T14:00:00;101558.75;;;18.86;39.75
65784;BME280;52532;53.358;-1.488;2022-07-05T14:03:03;101547.25;;;20.04;36.11
65784;BME280;52532;53.358;-1.488;2022-07-05T14:06:06;101548.34;;;20.91;34.95
65784;BME280;52532;53.358;-1.488;2022-07-05T14:09:09;101548.65;;;21.87;32.74
65784;BME280;52532;53.358;-1.488;2022-07-05T14:12:13;101557.80;;;22.31;33.42
65784;BME280;52532;53.358;-1.488;2022-07-05T14:15:16;101555.57;;;20.31;37.22
65784;BME280;52532;53.358;-1.488;2022-07-05T14:18:21;101558.07;;;20.18;35.93
65784;BME280;52532;53.358;-1.488;2022-07-05T14:21:24;101554.07;;;21.21;35.99
65784;BME280;52532;53.358;-1.488;2022-07-05T14:24:27;101565.40;;;19.31;37.81
65784;BME280;52532;53.358;-1.488;2022-07-05T14:27:32;101570.06;;;18.73;37.20
65784;BME280;52532;53.358;-1.488;2022-07-05T14:30:36;101562.88;;;19.52;36.58
65784;BME280;52532;53.358;-1.488;2022-07-05T14:33:39;101569.80;;;19.44;36.64
65784;BME280;52532;53.358;-1.488;2022-07-05T14:36:42;101562.66;;;20.40;35.68
65784;BME280;52532;53.358;-1.488;2022-07-05T14:39:45;101572.19;;;20.15;36.24
65784;BME280;52532;53.358;-1.488;2022-07-05T14:42:49;101568.38;;;20.85;34.96
65784;BME280;52532;53.358;-1.488;2022-07-05T14:45:52;101576.25;;;21.65;35.27
65784;BME280;52532;53.358;-1.488;2022-07-05T14:49:01;101575.01;;;20.71;35.86
65784;BME280;52532;53.358;-1.488;2022-07-05T14:52:05;101578.97;;;19.20;38.97
65784;BME280;52532;53.358;-1.488;2022-07-05T14:55:09;101580.44;;;20.28;37.32
65784;BME280;52532;53.358;-1.488;2022-07-05T14:58:12;101584.80;;;20.74;37.00
65784;BME280;52532;53.358;-1.488;2022-07-05T15:01:17;101581.78;;;21.97;36.35
65784;BME280;52532;53.358;-1.488;2022-07-05T15:04:20;101586.20;;;21.62;35.07
65784;BME280;52532;53.358;-1.488;2022-07-05T15:07:22;101583.62;;;22.10;33.64
65784;BME280;52532;53.358;-1.488;2022-07-05T15:10:26;101590.92;;;21.34;35.32
65784;BME280;52532;53.358;-1.488;2022-07-05T15:13:39;101579.69;;;22.25;33.64
65784;BME280;52532;53.358;-1.488;2022-07-05T15:16:42;101587.37;;;21.80;33.85
65784;BME280;52532;53.358;-1.488;2022-07-05T15:19:45;101587.32;;;20.09;37.03
65784;BME280;52532;53.358;-1.488;2022-07-05T15:22:48;101584.71;;;19.41;38.20
65784;BME280;52532;53.358;-1.488;2022-07-05T15:25:51;101578.33;;;19.97;37.29
65784;BME280;52532;53.358;-1.488;2022-07-05T15:29:02;101593.54;;;19.85;39.25
65784;BME280;52532;53.358;-1.488;2022-07-05T15:32:06;101582.66;;;20.18;40.16
65784;BME280;52532;53.358;-1.488;2022-07-05T15:35:09;101584.32;;;20.75;37.73
65784;BME280;52532;53.358;-1.488;2022-07-05T15:38:13;101575.43;;;21.18;37.24
65784;BME280;52532;53.358;-1.488;2022-07-05T15:41:15;101574.42;;;20.68;36.69
65784;BME280;52532;53.358;-1.488;2022-07-05T15:44:23;101576.60;;;21.34;36.02
65784;BME280;52532;53.358;-1.488;2022-07-05T15:50:23;101571.33;;;20.55;36.66
65784;BME280;52532;53.358;-1.488;2022-07-05T15:53:27;101577.29;;;21.85;34.44
65784;BME280;52532;53.358;-1.488;2022-07-05T15:56:31;101586.18;;;22.10;32.97
65784;BME280;52532;53.358;-1.488;2022-07-05T15:59:34;101590.31;;;21.05;34.34
65784;BME280;52532;53.358;-1.488;2022-07-05T16:02:37;101596.75;;;20.04;36.12
65784;BME280;52532;53.358;-1.488;2022-07-05T16:05:39;101592.76;;;19.35;37.79
65784;BME280;52532;53.358;-1.488;2022-07-05T16:08:42;101589.79;;;20.39;36.02
65784;BME280;52532;53.358;-1.488;2022-07-05T16:11:45;101598.07;;;22.59;32.55